createdAt,value
2018-02-07T00:00:08.494Z,95882.99
2018-02-07T00:02:37.079Z,95881.59
2018-02-07T00:05:05.350Z,95884.27
2018-02-07T00:07:33.835Z,95896.10
2018-02-07T00:10:02.352Z,95896.70
2018-02-07T00:12:30.899Z,95885.34
2018-02-07T00:14:59.690Z,95881.56
2018-02-07T00:17:27.999Z,95875.98
2018-02-07T00:19:56.856Z,95884.05
2018-02-07T00:22:25.330Z,95885.66
2018-02-07T00:24:53.550Z,95888.42
2018-02-07T00:27:22.086Z,95889.99
2018-02-07T00:29:50.979Z,95883.75
2018-02-07T00:32:19.662Z,95879.78
2018-02-07T00:34:48.248Z,95876.91
2018-02-07T00:37:16.728Z,95874.67
2018-02-07T00:39:45.514Z,95878.34
2018-02-07T00:42:14.198Z,95870.40
2018-02-07T00:44:42.802Z,95869.63
2018-02-07T00:47:11.366Z,95870.84
2018-02-07T00:49:39.847Z,95878.11
2018-02-07T00:52:08.243Z,95882.41
2018-02-07T00:54:36.907Z,95875.65
2018-02-07T00:57:05.400Z,95874.33
2018-02-07T00:59:33.788Z,95871.27
2018-02-07T01:02:02.453Z,95861.06
2018-02-07T01:04:31.039Z,95860.42
2018-02-07T01:06:59.522Z,95861.84
2018-02-07T01:09:27.889Z,95850.51
2018-02-07T01:11:56.578Z,95848.52
2018-02-07T01:14:24.971Z,95845.37
2018-02-07T01:16:53.442Z,95847.74
2018-02-07T01:19:22.225Z,95846.78
2018-02-07T01:21:50.891Z,95841.34
2018-02-07T01:24:19.598Z,95829.59
2018-02-07T01:26:48.282Z,95830.73
2018-02-07T01:29:16.558Z,95815.69
2018-02-07T01:31:45.324Z,95815.64
2018-02-07T01:34:13.466Z,95816.23
2018-02-07T01:36:42.111Z,95804.88
2018-02-07T01:39:10.674Z,95800.96
2018-02-07T01:41:39.161Z,95801.54
2018-02-07T01:44:07.641Z,95786.09
2018-02-07T01:46:36.033Z,95800.65
2018-02-07T01:49:04.910Z,95799.68
2018-02-07T01:51:33.389Z,95806.91
2018-02-07T01:54:01.678Z,95803.50
2018-02-07T01:56:30.252Z,95811.84
2018-02-07T01:58:58.714Z,95809.95
2018-02-07T02:01:27.321Z,95806.08
2018-02-07T02:03:55.793Z,95815.48
2018-02-07T02:06:23.997Z,95816.66
2018-02-07T02:08:52.346Z,95815.55
2018-02-07T02:11:20.827Z,95817.03
2018-02-07T02:13:49.409Z,95820.53
2018-02-07T02:16:17.889Z,95798.06
2018-02-07T02:18:46.270Z,95813.52
2018-02-07T02:21:14.954Z,95816.66
2018-02-07T02:23:43.416Z,95805.89
2018-02-07T02:26:11.814Z,95803.27
2018-02-07T02:28:40.398Z,95819.42
2018-02-07T02:31:08.685Z,95798.05
2018-02-07T02:33:36.951Z,95802.18
2018-02-07T02:36:17.453Z,95800.61
2018-02-07T02:38:45.791Z,95804.52
2018-02-07T02:41:14.675Z,95801.53
2018-02-07T02:43:42.843Z,95809.32
2018-02-07T02:46:11.336Z,95810.87
2018-02-07T02:48:39.914Z,95805.27
2018-02-07T02:51:08.906Z,95799.41
2018-02-07T02:53:37.570Z,95791.16
2018-02-07T02:56:06.070Z,95786.84
2018-02-07T02:58:34.655Z,95793.39
2018-02-07T03:01:03.018Z,95777.73
2018-02-07T03:03:31.413Z,95781.72
2018-02-07T03:06:00.194Z,95774.03
2018-02-07T03:08:28.678Z,95773.39
2018-02-07T03:10:56.955Z,95772.40
2018-02-07T03:13:25.349Z,95773.16
2018-02-07T03:15:53.810Z,95770.83
2018-02-07T03:18:21.986Z,95772.62
2018-02-07T03:20:50.561Z,95773.53
2018-02-07T03:23:19.047Z,95767.59
2018-02-07T03:25:47.338Z,95765.00
2018-02-07T03:28:15.702Z,95773.80
2018-02-07T03:30:44.183Z,95774.54
2018-02-07T03:33:12.557Z,95771.56
2018-02-07T03:35:41.255Z,95764.53
2018-02-07T03:38:09.936Z,95755.10
2018-02-07T03:40:38.506Z,95749.95
2018-02-07T03:43:07.245Z,95755.80
2018-02-07T03:45:35.881Z,95758.07
2018-02-07T03:48:04.678Z,95758.88
2018-02-07T03:50:32.841Z,95764.16
2018-02-07T03:53:01.633Z,95754.99
2018-02-07T03:55:30.526Z,95763.64
2018-02-07T03:57:58.907Z,95766.80
2018-02-07T04:00:27.181Z,95756.67
2018-02-07T04:02:55.454Z,95765.11
2018-02-07T04:05:24.137Z,95761.58
2018-02-07T04:07:52.722Z,95755.75
2018-02-07T04:10:21.254Z,95761.48
2018-02-07T04:12:49.578Z,95748.05
2018-02-07T04:15:18.146Z,95748.70
2018-02-07T04:17:46.543Z,95738.38
2018-02-07T04:20:15.130Z,95732.39
2018-02-07T04:22:43.302Z,95734.94
2018-02-07T04:25:11.674Z,95742.33
2018-02-07T04:27:40.114Z,95740.55
2018-02-07T04:30:08.640Z,95748.02
2018-02-07T04:32:37.322Z,95744.28
2018-02-07T04:35:05.711Z,95743.03
2018-02-07T04:37:34.132Z,95736.24
2018-02-07T04:40:02.453Z,95741.92
2018-02-07T04:42:30.934Z,95754.05
2018-02-07T04:44:59.421Z,95760.58
2018-02-07T04:47:28.082Z,95763.81
2018-02-07T04:49:56.286Z,95773.53
2018-02-07T04:52:24.962Z,95785.72
2018-02-07T04:54:53.555Z,95774.38
2018-02-07T04:57:21.925Z,95785.33
2018-02-07T04:59:50.402Z,95783.05
2018-02-07T05:02:18.779Z,95777.33
2018-02-07T05:04:47.173Z,95787.47
2018-02-07T05:07:15.450Z,95792.02
2018-02-07T05:09:43.895Z,95795.77
2018-02-07T05:12:12.190Z,95792.41
2018-02-07T05:14:40.832Z,95806.08
2018-02-07T05:17:09.359Z,95805.67
2018-02-07T05:19:37.839Z,95790.08
2018-02-07T05:22:06.133Z,95790.30
2018-02-07T05:24:34.388Z,95806.77
2018-02-07T05:27:03.012Z,95808.90
2018-02-07T05:29:31.554Z,95826.86
2018-02-07T05:32:00.139Z,95810.46
2018-02-07T05:34:28.905Z,95806.52
2018-02-07T05:36:57.402Z,95803.30
2018-02-07T05:39:26.090Z,95796.77
2018-02-07T05:41:54.551Z,95791.58
2018-02-07T05:44:23.153Z,95795.92
2018-02-07T05:46:51.838Z,95795.80
2018-02-07T05:49:20.300Z,95795.00
2018-02-07T05:51:48.800Z,95795.28
2018-02-07T05:54:17.077Z,95789.91
2018-02-07T05:56:45.759Z,95795.12
2018-02-07T05:59:14.031Z,95806.70
2018-02-07T06:01:42.530Z,95795.82
2018-02-07T06:04:10.709Z,95805.06
2018-02-07T06:06:38.964Z,95801.37
2018-02-07T06:09:07.528Z,95801.04
2018-02-07T06:11:35.927Z,95789.88
2018-02-07T06:14:04.324Z,95802.80
2018-02-07T06:16:33.090Z,95799.91
2018-02-07T06:19:01.878Z,95804.72
2018-02-07T06:21:30.199Z,95806.69
2018-02-07T06:23:59.031Z,95800.95
2018-02-07T06:26:27.531Z,95800.55
2018-02-07T06:28:56.110Z,95781.56
2018-02-07T06:31:24.378Z,95799.13
2018-02-07T06:33:52.873Z,95793.44
2018-02-07T06:36:21.345Z,95789.25
2018-02-07T06:38:49.947Z,95781.73
2018-02-07T06:41:18.309Z,95786.20
2018-02-07T06:43:46.682Z,95799.94
2018-02-07T06:46:14.961Z,95804.27
2018-02-07T06:48:43.745Z,95801.98
2018-02-07T06:51:12.311Z,95799.84
2018-02-07T06:53:40.917Z,95795.34
2018-02-07T06:56:09.390Z,95797.18
2018-02-07T06:58:38.386Z,95796.83
2018-02-07T07:01:06.570Z,95792.72
2018-02-07T07:03:34.835Z,95795.05
2018-02-07T07:06:03.518Z,95793.17
2018-02-07T07:08:31.902Z,95786.85
2018-02-07T07:11:00.481Z,95788.36
2018-02-07T07:13:29.062Z,95776.84
2018-02-07T07:15:57.347Z,95774.58
2018-02-07T07:18:25.722Z,95771.73
2018-02-07T07:20:54.076Z,95776.96
2018-02-07T07:23:22.577Z,95778.09
2018-02-07T07:25:51.571Z,95781.02
2018-02-07T07:28:19.993Z,95784.66
2018-02-07T07:30:48.326Z,95782.74
2018-02-07T07:33:16.298Z,95777.89
2018-02-07T07:35:44.274Z,95778.53
2018-02-07T07:38:12.327Z,95782.66
2018-02-07T07:40:40.304Z,95769.60
2018-02-07T07:43:08.320Z,95775.30
2018-02-07T07:45:36.302Z,95780.56
2018-02-07T07:48:04.249Z,95776.75
2018-02-07T07:50:32.259Z,95777.72
2018-02-07T07:53:00.243Z,95781.02
2018-02-07T07:55:28.246Z,95771.91
2018-02-07T07:57:56.207Z,95773.52
2018-02-07T08:00:24.567Z,95783.52
2018-02-07T08:02:52.575Z,95785.09
2018-02-07T08:05:20.482Z,95776.52
2018-02-07T08:07:48.466Z,95766.48
2018-02-07T08:10:16.468Z,95754.80
2018-02-07T08:12:45.106Z,95752.19
2018-02-07T08:15:13.093Z,95751.05
2018-02-07T08:17:41.050Z,95748.05
2018-02-07T08:20:09.053Z,95753.60
2018-02-07T08:22:37.140Z,95757.49
2018-02-07T08:25:05.218Z,95740.75
2018-02-07T08:27:33.143Z,95734.34
2018-02-07T08:30:01.231Z,95730.60
2018-02-07T08:32:29.226Z,95734.20
2018-02-07T08:34:57.238Z,95717.94
2018-02-07T08:37:25.238Z,95716.12
2018-02-07T08:39:53.242Z,95723.34
2018-02-07T08:42:21.194Z,95713.78
2018-02-07T08:44:49.202Z,95711.42
2018-02-07T08:47:17.267Z,95709.78
2018-02-07T08:49:45.253Z,95702.05
2018-02-07T08:52:13.185Z,95694.33
2018-02-07T08:54:41.050Z,95703.83
2018-02-07T08:57:09.062Z,95701.55
2018-02-07T08:59:37.027Z,95706.08
2018-02-07T09:02:05.412Z,95705.47
2018-02-07T09:04:33.431Z,95706.14
2018-02-07T09:07:01.450Z,95708.81
2018-02-07T09:09:29.519Z,95711.44
2018-02-07T09:11:57.533Z,95714.42
2018-02-07T09:14:25.493Z,95717.20
2018-02-07T09:16:53.494Z,95722.41
2018-02-07T09:19:21.493Z,95720.42
2018-02-07T09:21:49.771Z,95724.77
2018-02-07T09:24:18.156Z,95717.09
2018-02-07T09:26:47.156Z,95721.52
2018-02-07T09:29:15.731Z,95703.43
2018-02-07T09:31:44.305Z,95711.22
2018-02-07T09:34:12.871Z,95704.51
2018-02-07T09:36:41.473Z,95711.00
2018-02-07T09:39:10.053Z,95704.14
2018-02-07T09:41:38.722Z,95702.06
2018-02-07T09:44:06.918Z,95687.22
2018-02-07T09:46:35.398Z,95701.92
2018-02-07T09:49:03.778Z,95701.63
2018-02-07T09:51:32.254Z,95699.70
2018-02-07T09:54:01.045Z,95700.92
2018-02-07T09:56:29.502Z,95698.10
2018-02-07T09:58:57.906Z,95697.81
2018-02-07T10:01:26.488Z,95697.32
2018-02-07T10:03:55.242Z,95706.08
2018-02-07T10:06:24.038Z,95715.75
2018-02-07T10:08:52.642Z,95695.09
2018-02-07T10:11:21.018Z,95681.05
2018-02-07T10:13:49.606Z,95670.50
2018-02-07T10:16:18.190Z,95657.66
2018-02-07T10:18:46.562Z,95626.77
2018-02-07T10:21:14.838Z,95654.84
2018-02-07T10:23:43.425Z,95656.83
2018-02-07T10:26:11.595Z,95645.98
2018-02-07T10:28:39.974Z,95630.70
2018-02-07T10:31:08.454Z,95622.87
2018-02-07T10:33:37.267Z,95613.47
2018-02-07T10:36:05.619Z,95614.72
2018-02-07T10:38:34.002Z,95604.78
2018-02-07T10:41:02.582Z,95605.45
2018-02-07T10:43:31.290Z,95608.01
2018-02-07T10:46:00.155Z,95610.92
2018-02-07T10:48:28.733Z,95608.28
2018-02-07T10:50:57.197Z,95602.47
2018-02-07T10:53:25.496Z,95594.13
2018-02-07T10:55:53.770Z,95596.91
2018-02-07T10:58:22.741Z,95589.23
2018-02-07T11:00:51.331Z,95578.84
2018-02-07T11:03:19.717Z,95561.58
2018-02-07T11:05:48.713Z,95549.52
2018-02-07T11:08:17.127Z,95539.80
2018-02-07T11:10:45.476Z,95528.52
2018-02-07T11:13:13.487Z,95516.61
2018-02-07T11:15:41.440Z,95509.73
2018-02-07T11:18:09.458Z,95505.25
2018-02-07T11:20:37.508Z,95498.62
2018-02-07T11:23:05.545Z,95494.47
2018-02-07T11:25:33.535Z,95494.67
2018-02-07T11:28:01.564Z,95488.75
2018-02-07T11:30:29.499Z,95479.05
2018-02-07T11:32:57.475Z,95475.44
2018-02-07T11:35:25.478Z,95473.16
2018-02-07T11:37:53.473Z,95476.58
2018-02-07T11:40:21.441Z,95492.17
2018-02-07T11:42:49.398Z,95481.94
2018-02-07T11:45:17.355Z,95480.77
2018-02-07T11:47:45.818Z,95464.93
2018-02-07T11:50:14.197Z,95443.78
2018-02-07T11:52:42.473Z,95447.55
2018-02-07T11:55:10.855Z,95426.00
2018-02-07T11:57:38.800Z,95426.26
2018-02-07T12:00:06.771Z,95442.09
2018-02-07T12:02:34.730Z,95433.51
2018-02-07T12:05:02.689Z,95453.41
2018-02-07T12:07:30.998Z,95443.30
2018-02-07T12:09:58.961Z,95434.09
2018-02-07T12:12:27.018Z,95425.64
2018-02-07T12:14:55.073Z,95417.53
2018-02-07T12:17:23.134Z,95404.31
2018-02-07T12:19:51.632Z,95415.03
2018-02-07T12:22:20.514Z,95412.86
2018-02-07T12:24:48.538Z,95423.23
2018-02-07T12:27:16.486Z,95409.20
2018-02-07T12:29:44.513Z,95404.67
2018-02-07T12:32:12.473Z,95389.20
2018-02-07T12:34:41.530Z,95390.37
2018-02-07T12:37:09.550Z,95389.69
2018-02-07T12:39:37.559Z,95393.27
2018-02-07T12:42:05.555Z,95389.28
2018-02-07T12:44:33.596Z,95386.34
2018-02-07T12:47:01.575Z,95376.98
2018-02-07T12:49:29.575Z,95372.77
2018-02-07T12:51:58.678Z,95376.83
2018-02-07T12:54:27.681Z,95372.16
2018-02-07T12:56:55.651Z,95377.69
2018-02-07T12:59:23.618Z,95373.44
2018-02-07T13:01:51.643Z,95372.58
2018-02-07T13:04:19.756Z,95388.70
2018-02-07T13:06:48.945Z,95390.09
2018-02-07T13:09:17.378Z,95363.58
2018-02-07T13:11:45.291Z,95382.54
2018-02-07T13:14:13.251Z,95385.92
2018-02-07T13:16:41.191Z,95372.34
2018-02-07T13:19:09.163Z,95371.08
2018-02-07T13:21:37.117Z,95364.42
2018-02-07T13:24:05.127Z,95378.79
2018-02-07T13:26:33.571Z,95385.38
2018-02-07T13:29:02.191Z,95399.77
2018-02-07T13:31:30.175Z,95394.92
2018-02-07T13:33:58.705Z,95389.60
2018-02-07T13:36:26.974Z,95394.03
2018-02-07T13:38:55.455Z,95381.87
2018-02-07T13:41:23.830Z,95370.80
2018-02-07T13:43:52.427Z,95370.11
2018-02-07T13:46:20.963Z,95365.45
2018-02-07T13:48:49.296Z,95339.23
2018-02-07T13:51:17.835Z,95342.23
2018-02-07T13:53:46.338Z,95356.14
2018-02-07T13:56:18.380Z,95359.15
2018-02-07T13:58:48.159Z,95358.83
2018-02-07T14:01:16.137Z,95351.14
2018-02-07T14:03:44.128Z,95334.02
2018-02-07T14:06:12.057Z,95337.80
2018-02-07T14:08:40.042Z,95341.27
2018-02-07T14:11:08.351Z,95337.84
2018-02-07T14:13:36.350Z,95321.25
2018-02-07T14:16:04.361Z,95321.52
2018-02-07T14:18:32.344Z,95327.78
2018-02-07T14:21:00.439Z,95335.72
2018-02-07T14:23:28.410Z,95323.59
2018-02-07T14:25:56.363Z,95317.34
2018-02-07T14:28:24.298Z,95330.72
2018-02-07T14:30:52.254Z,95331.17
2018-02-07T14:33:20.205Z,95325.07
2018-02-07T14:35:48.171Z,95240.84
2018-02-07T14:38:16.131Z,95309.53
2018-02-07T14:40:44.134Z,95314.17
2018-02-07T14:43:12.109Z,95315.05
2018-02-07T14:45:40.101Z,95318.74
2018-02-07T14:48:08.066Z,95326.73
2018-02-07T14:50:36.030Z,95322.98
2018-02-07T14:53:04.082Z,95309.23
2018-02-07T14:55:32.059Z,95303.87
2018-02-07T14:58:00.054Z,95309.38
2018-02-07T15:00:27.963Z,95313.56
2018-02-07T15:02:55.931Z,95313.19
2018-02-07T15:05:23.917Z,95305.69
2018-02-07T15:07:51.859Z,95315.63
2018-02-07T15:10:19.865Z,95313.02
2018-02-07T15:12:48.074Z,95320.61
2018-02-07T15:15:16.048Z,95314.82
2018-02-07T15:17:44.010Z,95315.34
2018-02-07T15:20:12.047Z,95322.13
2018-02-07T15:22:40.066Z,95320.69
2018-02-07T15:25:08.073Z,95326.95
2018-02-07T15:27:36.118Z,95344.91
2018-02-07T15:30:04.159Z,95352.30
2018-02-07T15:32:32.187Z,95330.20
2018-02-07T15:35:00.164Z,95333.14
2018-02-07T15:37:28.102Z,95342.66
2018-02-07T15:39:56.666Z,95343.26
2018-02-07T15:42:24.631Z,95335.58
2018-02-07T15:44:52.556Z,95325.95
2018-02-07T15:47:20.574Z,95328.97
2018-02-07T15:49:48.490Z,95335.45
2018-02-07T15:52:16.478Z,95334.03
2018-02-07T15:54:44.446Z,95344.20
2018-02-07T15:57:12.392Z,95343.69
2018-02-07T15:59:40.918Z,95340.91
2018-02-07T16:02:08.967Z,95327.70
2018-02-07T16:04:37.007Z,95342.43
2018-02-07T16:07:05.027Z,95338.69
2018-02-07T16:09:33.033Z,95338.45
2018-02-07T16:12:01.106Z,95333.90
2018-02-07T16:14:29.551Z,95237.59
2018-02-07T16:16:57.499Z,95338.52
2018-02-07T16:19:25.568Z,95337.40
2018-02-07T16:21:53.490Z,95334.94
2018-02-07T16:24:21.557Z,95334.58
2018-02-07T16:26:49.509Z,95335.04
2018-02-07T16:29:17.529Z,95340.77
2018-02-07T16:31:45.490Z,95342.95
2018-02-07T16:34:13.449Z,95342.87
2018-02-07T16:36:41.473Z,95343.59
2018-02-07T16:39:09.425Z,95348.78
2018-02-07T16:41:37.913Z,95357.83
2018-02-07T16:44:06.813Z,95359.45
2018-02-07T16:46:35.183Z,95356.87
2018-02-07T16:49:03.870Z,95350.80
2018-02-07T16:51:32.250Z,95347.48
2018-02-07T16:54:00.730Z,95347.61
2018-02-07T16:56:29.210Z,95349.05
2018-02-07T16:58:57.524Z,95340.82
2018-02-07T17:01:25.570Z,95346.81
2018-02-07T17:03:53.527Z,95343.16
2018-02-07T17:06:21.511Z,95340.70
2018-02-07T17:08:49.459Z,95340.83
2018-02-07T17:11:17.451Z,95338.67
2018-02-07T17:13:45.475Z,95335.02
2018-02-07T17:16:13.826Z,95327.66
2018-02-07T17:18:41.777Z,95331.33
2018-02-07T17:21:09.896Z,95326.56
2018-02-07T17:23:38.498Z,95328.84
2018-02-07T17:26:07.083Z,95323.57
2018-02-07T17:28:35.571Z,95323.30
2018-02-07T17:31:04.021Z,95327.66
2018-02-07T17:33:32.027Z,95322.13
2018-02-07T17:36:00.049Z,95314.45
2018-02-07T17:38:28.131Z,95315.84
2018-02-07T17:40:56.090Z,95308.13
2018-02-07T17:43:24.090Z,95309.17
2018-02-07T17:45:52.678Z,95315.40
2018-02-07T17:48:20.646Z,95314.99
2018-02-07T17:50:48.714Z,95308.88
2018-02-07T17:53:16.667Z,95307.76
2018-02-07T17:55:44.618Z,95289.64
2018-02-07T17:58:12.598Z,95298.16
2018-02-07T18:00:40.617Z,95286.83
2018-02-07T18:03:08.614Z,95280.22
2018-02-07T18:05:36.638Z,95276.37
2018-02-07T18:08:04.681Z,95274.20
2018-02-07T18:10:32.683Z,95263.98
2018-02-07T18:13:00.683Z,95262.99
2018-02-07T18:15:28.697Z,95253.30
2018-02-07T18:17:56.839Z,95254.23
2018-02-07T18:20:24.855Z,95246.62
2018-02-07T18:22:52.822Z,95250.08
2018-02-07T18:25:20.781Z,95244.14
2018-02-07T18:27:48.807Z,95241.72
2018-02-07T18:30:16.789Z,95233.97
2018-02-07T18:32:44.774Z,95237.27
2018-02-07T18:35:12.754Z,95239.01
2018-02-07T18:37:40.760Z,95237.67
2018-02-07T18:40:08.671Z,95240.16
2018-02-07T18:42:36.673Z,95231.13
2018-02-07T18:45:04.700Z,95228.94
2018-02-07T18:47:32.767Z,95225.59
2018-02-07T18:50:00.775Z,95227.06
2018-02-07T18:52:28.774Z,95230.31
2018-02-07T18:54:57.330Z,95225.47
2018-02-07T18:57:25.988Z,95215.27
2018-02-07T18:59:54.390Z,95205.06
2018-02-07T19:02:22.871Z,95200.99
2018-02-07T19:04:51.259Z,95197.28
2018-02-07T19:07:19.830Z,95200.97
2018-02-07T19:09:48.310Z,95200.87
2018-02-07T19:12:16.890Z,95202.20
2018-02-07T19:14:45.492Z,95211.82
2018-02-07T19:17:13.489Z,95197.23
2018-02-07T19:19:41.824Z,95199.34
2018-02-07T19:22:09.731Z,95199.90
2018-02-07T19:24:37.689Z,95194.03
2018-02-07T19:27:05.627Z,95186.02
2018-02-07T19:29:33.596Z,95185.72
2018-02-07T19:32:01.543Z,95187.95
2018-02-07T19:34:29.611Z,95181.95
2018-02-07T19:36:57.639Z,95173.31
2018-02-07T19:39:25.617Z,95177.37
2018-02-07T19:41:53.565Z,95175.97
2018-02-07T19:44:21.618Z,95167.94
2018-02-07T19:46:49.641Z,95155.73
2018-02-07T19:49:17.598Z,95158.30
2018-02-07T19:51:45.629Z,95154.28
2018-02-07T19:54:13.624Z,95148.29
2018-02-07T19:56:41.600Z,95143.73
2018-02-07T19:59:09.618Z,95147.80
2018-02-07T20:01:37.599Z,95143.84
2018-02-07T20:04:05.517Z,95144.04
2018-02-07T20:06:34.437Z,95149.09
2018-02-07T20:09:02.427Z,95148.95
2018-02-07T20:11:30.392Z,95144.76
2018-02-07T20:13:58.454Z,95150.98
2018-02-07T20:16:26.382Z,95147.75
2018-02-07T20:18:54.342Z,95138.86
2018-02-07T20:21:22.583Z,95144.14
2018-02-07T20:23:50.528Z,95135.58
2018-02-07T20:26:18.570Z,95129.45
2018-02-07T20:28:46.578Z,95133.19
2018-02-07T20:31:14.523Z,95129.66
2018-02-07T20:33:42.517Z,95126.47
2018-02-07T20:36:10.459Z,95116.20
2018-02-07T20:38:38.443Z,95115.45
2018-02-07T20:41:06.505Z,95113.59
2018-02-07T20:43:34.495Z,95116.09
2018-02-07T20:46:02.460Z,95110.78
2018-02-07T20:48:30.474Z,95094.89
2018-02-07T20:50:58.467Z,95087.17
2018-02-07T20:53:26.466Z,95087.31
2018-02-07T20:55:54.474Z,95090.34
2018-02-07T20:58:22.405Z,95090.44
2018-02-07T21:00:50.389Z,95084.35
2018-02-07T21:03:18.337Z,95083.22
2018-02-07T21:05:46.542Z,95080.08
2018-02-07T21:08:14.543Z,95087.09
2018-02-07T21:10:42.476Z,95088.20
2018-02-07T21:13:10.411Z,95079.50
2018-02-07T21:15:38.375Z,95082.25
2018-02-07T21:18:06.353Z,95066.27
2018-02-07T21:20:34.405Z,95057.39
2018-02-07T21:23:02.819Z,95058.94
2018-02-07T21:25:30.783Z,95066.09
2018-02-07T21:27:58.762Z,95056.81
2018-02-07T21:30:26.711Z,95052.18
2018-02-07T21:32:54.810Z,95046.81
2018-02-07T21:35:22.766Z,95018.17
2018-02-07T21:37:50.746Z,95027.50
2018-02-07T21:40:18.713Z,95016.69
2018-02-07T21:42:46.708Z,95019.42
2018-02-07T21:45:14.628Z,95017.38
2018-02-07T21:47:42.621Z,95009.88
2018-02-07T21:50:10.693Z,95009.56
2018-02-07T21:52:38.662Z,94991.19
2018-02-07T21:55:06.668Z,95008.69
2018-02-07T21:57:34.616Z,94917.42
2018-02-07T22:00:02.719Z,95002.60
2018-02-07T22:02:31.019Z,95001.16
2018-02-07T22:04:59.494Z,94998.67
2018-02-07T22:07:27.698Z,94996.84
2018-02-07T22:09:56.251Z,94994.52
2018-02-07T22:12:24.629Z,94989.54
2018-02-07T22:14:52.855Z,94983.67
2018-02-07T22:17:21.697Z,94976.72
2018-02-07T22:19:50.583Z,94976.71
2018-02-07T22:22:18.898Z,94966.52
2018-02-07T22:24:47.645Z,94969.73
2018-02-07T22:27:16.004Z,94969.39
2018-02-07T22:29:44.653Z,94962.29
2018-02-07T22:32:13.086Z,94955.39
2018-02-07T22:34:41.774Z,94949.63
2018-02-07T22:37:10.046Z,94953.53
2018-02-07T22:39:38.535Z,94959.20
2018-02-07T22:42:07.010Z,94953.80
2018-02-07T22:44:35.494Z,94940.52
2018-02-07T22:47:03.865Z,94933.84
2018-02-07T22:49:32.250Z,94921.53
2018-02-07T22:52:00.829Z,94926.73
2018-02-07T22:54:29.191Z,94929.53
2018-02-07T22:56:57.587Z,94925.13
2018-02-07T22:59:26.066Z,94919.44
2018-02-07T23:01:54.532Z,94924.81
2018-02-07T23:04:23.130Z,94916.76
2018-02-07T23:06:51.709Z,94906.41
2018-02-07T23:09:19.985Z,94904.78
2018-02-07T23:11:48.674Z,94892.92
2018-02-07T23:14:17.046Z,94887.67
2018-02-07T23:16:45.640Z,94881.88
2018-02-07T23:19:14.319Z,94877.49
2018-02-07T23:21:42.799Z,94872.32
2018-02-07T23:24:11.497Z,94856.34
2018-02-07T23:26:39.961Z,94864.72
2018-02-07T23:29:08.662Z,94862.39
2018-02-07T23:31:37.438Z,94868.80
2018-02-07T23:34:05.794Z,94878.23
2018-02-07T23:36:34.294Z,94868.83
2018-02-07T23:39:02.878Z,94844.34
2018-02-07T23:41:31.161Z,94845.42
2018-02-07T23:43:59.425Z,94845.81
2018-02-07T23:46:27.705Z,94832.84
2018-02-07T23:48:56.086Z,94817.55
2018-02-07T23:51:24.574Z,94818.97
2018-02-07T23:53:53.152Z,94819.91
2018-02-07T23:56:21.530Z,94824.97
2018-02-07T23:58:50.087Z,94823.48
